| time (UTC) | temp F | wind direction | speed MPH | gust MPH | rain 1hr in | rain 24hr in | rain mn in | humidity % | barometer mb |
| 20260905170059 | 78 | 105 | 2.0 | 7.0 | 0.00 | 0.05 | 0.03 | 74 | 1012.7 |
| 20260905164600 | 79 | 5 | 1.0 | 5.0 | 0.01 | 0.06 | 0.03 | 73 | 1012.9 |
| 20260905163051 | 78 | 0 | 3.0 | 11.0 | 0.01 | 0.06 | 0.03 | 73 | 1012.9 |
| 20260905161547 | 79 | 61 | 4.0 | 7.0 | 0.01 | 0.06 | 0.03 | 71 | 1013.1 |
| 20260905160106 | 78 | 27 | 1.0 | 6.0 | 0.01 | 0.06 | 0.03 | 74 | 1013.3 |
| 20260905154551 | 78 | 80 | 2.0 | 4.0 | 0.00 | 0.05 | 0.02 | 74 | 1013.4 |
| 20260905153056 | 79 | 0 | 0.0 | 2.0 | 0.00 | 0.05 | 0.02 | 74 | 1013.8 |
| 20260905151558 | 78 | 0 | 1.0 | 5.0 | 0.00 | 0.05 | 0.02 | 75 | 1013.9 |
| 20260905150055 | 78 | 0 | 0.0 | 2.0 | 0.00 | 0.05 | 0.02 | 76 | 1013.9 |
| 20260905144550 | 75 | 138 | 0.0 | 3.0 | 0.00 | 0.05 | 0.02 | 81 | 1013.9 |
| 20260905143048 | 74 | 15 | 1.0 | 3.0 | 0.00 | 0.05 | 0.02 | 82 | 1013.9 |
| 20260905141600 | 74 | 0 | 0.0 | 3.0 | 0.00 | 0.05 | 0.02 | 82 | 1013.8 |
| 20260905140105 | 73 | 0 | 0.0 | 3.0 | 0.00 | 0.05 | 0.02 | 84 | 1013.8 |
| 20260905134549 | 73 | 15 | 2.0 | 4.0 | 0.00 | 0.06 | 0.02 | 83 | 1013.5 |
| 20260905133106 | 73 | 15 | 1.0 | 4.0 | 0.00 | 0.06 | 0.02 | 83 | 1013.2 |
| 20260905131607 | 73 | 17 | 2.0 | 5.0 | 0.00 | 0.06 | 0.02 | 85 | 1013.1 |
| 20260905130053 | 73 | 15 | 2.0 | 4.0 | 0.00 | 0.06 | 0.02 | 85 | 1013.2 |
| 20260905124549 | 72 | 217 | 1.0 | 3.0 | 0.00 | 0.06 | 0.02 | 87 | 1013.3 |
| 20260905123101 | 72 | 167 | 0.0 | 4.0 | 0.00 | 0.06 | 0.02 | 88 | 1013.3 |
| 20260905121553 | 71 | 178 | 0.0 | 2.0 | 0.00 | 0.06 | 0.02 | 89 | 1013.0 |
| 20260905120049 | 71 | 212 | 1.0 | 2.0 | 0.00 | 0.06 | 0.02 | 90 | 1012.9 |
| 20260905114554 | 70 | 0 | 0.0 | 3.0 | 0.00 | 0.06 | 0.02 | 90 | 1012.9 |
| 20260905113049 | 70 | 257 | 0.0 | 2.0 | 0.01 | 0.06 | 0.02 | 90 | 1012.9 |
| 20260905111606 | 70 | 258 | 0.0 | 2.0 | 0.01 | 0.06 | 0.02 | 89 | 1012.6 |
| 20260905110100 | 70 | 0 | 0.0 | 2.0 | 0.01 | 0.06 | 0.02 | 89 | 1012.6 |
| 20260905104609 | 71 | 0 | 1.0 | 3.0 | 0.01 | 0.07 | 0.02 | 88 | 1012.4 |
| 20260905103049 | 70 | 335 | 1.0 | 3.0 | 0.00 | 0.06 | 0.01 | 88 | 1012.4 |
| 20260905101550 | 70 | 188 | 0.0 | 3.0 | 0.00 | 0.06 | 0.01 | 88 | 1012.2 |
| 20260905100057 | 70 | 30 | 1.0 | 4.0 | 0.00 | 0.06 | 0.01 | 89 | 1012.2 |
| 20260905094551 | 70 | 15 | 1.0 | 4.0 | 0.00 | 0.06 | 0.01 | 89 | 1012.1 |
| 20260905093102 | 70 | 314 | 1.0 | 2.0 | 0.00 | 0.06 | 0.01 | 87 | 1012.0 |
| 20260905091549 | 71 | 0 | 0.0 | 2.0 | 0.00 | 0.06 | 0.01 | 86 | 1011.9 |
| 20260905090057 | 72 | 27 | 0.0 | 2.0 | 0.00 | 0.06 | 0.01 | 85 | 1011.8 |
| 20260905084602 | 72 | 34 | 4.0 | 8.0 | 0.00 | 0.06 | 0.01 | 84 | 1011.9 |
| 20260905083050 | 72 | 26 | 0.0 | 6.0 | 0.00 | 0.06 | 0.01 | 83 | 1011.9 |
| 20260905081559 | 73 | 32 | 3.0 | 9.0 | 0.00 | 0.06 | 0.01 | 82 | 1012.1 |
| 20260905080050 | 73 | 27 | 2.0 | 8.0 | 0.00 | 0.06 | 0.01 | 82 | 1012.2 |
| 20260905074555 | 73 | 28 | 2.0 | 8.0 | 0.00 | 0.07 | 0.01 | 82 | 1012.1 |
| 20260905073103 | 73 | 27 | 4.0 | 10.0 | 0.00 | 0.07 | 0.01 | 83 | 1012.2 |
| 20260905071551 | 73 | 26 | 4.0 | 10.0 | 0.00 | 0.07 | 0.01 | 83 | 1012.3 |
| 20260905070052 | 73 | 25 | 4.0 | 9.0 | 0.00 | 0.07 | 0.01 | 82 | 1012.6 |
| 20260905064549 | 73 | 25 | 2.0 | 8.0 | 0.00 | 0.07 | 0.01 | 82 | 1012.8 |
| 20260905063055 | 73 | 121 | 3.0 | 6.0 | 0.00 | 0.07 | 0.01 | 83 | 1012.9 |
| 20260905061553 | 74 | 138 | 1.0 | 8.0 | 0.00 | 0.07 | 0.01 | 82 | 1013.1 |
| 20260905060050 | 74 | 152 | 4.0 | 9.0 | 0.00 | 0.07 | 0.01 | 82 | 1013.3 |
| 20260905054559 | 74 | 191 | 4.0 | 9.0 | 0.01 | 0.07 | 0.01 | 81 | 1013.4 |
| 20260905053135 | 74 | 123 | 3.0 | 7.0 | 0.01 | 0.07 | 0.01 | 81 | 1013.4 |
| 20260905051553 | 74 | 221 | 3.0 | 9.0 | 0.01 | 0.07 | 0.01 | 81 | 1013.8 |
| 20260905050049 | 75 | 127 | 4.0 | 9.0 | 0.01 | 0.07 | 0.01 | 80 | 1013.9 |
| 20260905044550 | 75 | 174 | 4.0 | 11.0 | 0.00 | 0.07 | 0.00 | 80 | 1013.9 |
| 20260905043055 | 75 | 142 | 5.0 | 10.0 | 0.00 | 0.07 | 0.00 | 81 | 1014.0 |
| 20260905041552 | 75 | 169 | 4.0 | 9.0 | 0.00 | 0.07 | 0.00 | 81 | 1014.2 |
| 20260905040050 | 75 | 163 | 4.0 | 8.0 | 0.00 | 0.07 | 0.00 | 82 | 1014.1 |
| 20260905034554 | 75 | 150 | 1.0 | 7.0 | 0.00 | 0.07 | 0.07 | 83 | 1014.2 |
| 20260905033104 | 74 | 161 | 3.0 | 9.0 | 0.00 | 0.07 | 0.07 | 83 | 1014.0 |
| 20260905031600 | 74 | 0 | 0.0 | 9.0 | 0.00 | 0.07 | 0.07 | 84 | 1014.0 |
| 20260905030055 | 74 | 0 | 0.0 | 5.0 | 0.00 | 0.07 | 0.07 | 84 | 1014.0 |
| 20260905024559 | 74 | 251 | 0.0 | 3.0 | 0.00 | 0.07 | 0.07 | 83 | 1013.9 |
| 20260905023055 | 75 | 257 | 1.0 | 4.0 | 0.00 | 0.07 | 0.07 | 82 | 1013.7 |
| 20260905021549 | 75 | 232 | 2.0 | 7.0 | 0.00 | 0.07 | 0.07 | 81 | 1013.7 |
| 20260905020105 | 75 | 200 | 4.0 | 9.0 | 0.00 | 0.07 | 0.07 | 82 | 1013.5 |
| 20260905014557 | 75 | 182 | 1.0 | 8.0 | 0.00 | 0.07 | 0.07 | 83 | 1013.2 |
| 20260905013057 | 75 | 150 | 0.0 | 3.0 | 0.00 | 0.07 | 0.07 | 82 | 1013.3 |
| 20260905011554 | 75 | 119 | 1.0 | 5.0 | 0.00 | 0.07 | 0.07 | 82 | 1013.3 |
| 20260905010050 | 76 | 0 | 1.0 | 5.0 | 0.00 | 0.07 | 0.07 | 82 | 1013.3 |
| 20260905004551 | 76 | 0 | 0.0 | 4.0 | 0.00 | 0.08 | 0.07 | 81 | 1013.0 |
| 20260905003055 | 77 | 190 | 2.0 | 8.0 | 0.01 | 0.08 | 0.07 | 79 | 1013.2 |
| 20260905001554 | 77 | 165 | 2.0 | 5.0 | 0.01 | 0.08 | 0.07 | 79 | 1012.9 |
| 20260905000050 | 77 | 154 | 2.0 | 9.0 | 0.01 | 0.08 | 0.07 | 79 | 1012.9 |
| 20260904234555 | 78 | 173 | 4.0 | 7.0 | 0.01 | 0.08 | 0.07 | 78 | 1012.8 |
| 20260904233051 | 78 | 175 | 3.0 | 8.0 | 0.00 | 0.07 | 0.06 | 78 | 1012.8 |
| 20260904231556 | 78 | 181 | 3.0 | 7.0 | 0.00 | 0.07 | 0.06 | 78 | 1012.8 |
| 20260904230052 | 79 | 0 | 2.0 | 8.0 | 0.00 | 0.07 | 0.06 | 78 | 1012.8 |
| 20260904224609 | 79 | 188 | 4.0 | 11.0 | 0.00 | 0.07 | 0.06 | 78 | 1012.9 |
| 20260904223103 | 80 | 187 | 5.0 | 13.0 | 0.00 | 0.07 | 0.06 | 78 | 1013.4 |
| 20260904221558 | 82 | 198 | 4.0 | 10.0 | 0.00 | 0.07 | 0.06 | 79 | 1013.5 |
| 20260904220055 | 83 | 165 | 3.0 | 6.0 | 0.00 | 0.07 | 0.06 | 75 | 1013.0 |
| 20260904214551 | 82 | 161 | 1.0 | 5.0 | 0.00 | 0.07 | 0.06 | 76 | 1013.1 |
| 20260904213052 | 83 | 0 | 2.0 | 7.0 | 0.00 | 0.07 | 0.06 | 77 | 1013.3 |
| 20260904211550 | 83 | 130 | 5.0 | 8.0 | 0.00 | 0.07 | 0.06 | 75 | 1013.5 |
| 20260904210105 | 83 | 194 | 0.0 | 5.0 | 0.00 | 0.07 | 0.06 | 73 | 1013.5 |
| 20260904204552 | 83 | 165 | 4.0 | 9.0 | 0.00 | 0.08 | 0.06 | 74 | 1013.5 |
| 20260904203052 | 84 | 161 | 2.0 | 4.0 | 0.00 | 0.08 | 0.06 | 74 | 1013.8 |
| 20260904201601 | 84 | 279 | 1.0 | 3.0 | 0.01 | 0.08 | 0.06 | 76 | 1013.7 |
| 20260904200121 | 83 | 292 | 1.0 | 2.0 | 0.01 | 0.08 | 0.06 | 79 | 1013.3 |
| 20260904194604 | 82 | 0 | 0.0 | 2.0 | 0.01 | 0.08 | 0.06 | 82 | 1013.4 |
| 20260904193110 | 80 | 317 | 0.0 | 2.0 | 0.01 | 0.08 | 0.06 | 87 | 1013.5 |
| 20260904191555 | 79 | 317 | 1.0 | 4.0 | 0.00 | 0.07 | 0.05 | 86 | 1013.8 |
| 20260904190058 | 81 | 296 | 0.0 | 3.0 | 0.00 | 0.07 | 0.05 | 81 | 1014.1 |
| 20260904184556 | 85 | 46 | 1.0 | 5.0 | 0.00 | 0.07 | 0.05 | 71 | 1013.6 |
| 20260904183050 | 86 | 334 | 1.0 | 4.0 | 0.00 | 0.07 | 0.05 | 67 | 1013.8 |
| 20260904181600 | 86 | 67 | 3.0 | 8.0 | 0.00 | 0.07 | 0.05 | 66 | 1013.9 |
| 20260904180055 | 88 | 56 | 3.0 | 8.0 | 0.00 | 0.07 | 0.05 | 62 | 1014.4 |
| 20260904174600 | 88 | 279 | 1.0 | 9.0 | 0.00 | 0.08 | 0.05 | 63 | 1014.5 |
| 20260904173126 | 87 | 217 | 8.0 | 14.0 | 0.00 | 0.08 | 0.05 | 65 | 1014.6 |
| 20260904171606 | 87 | 223 | 6.0 | 11.0 | 0.00 | 0.08 | 0.05 | 63 | 1014.9 |